Time;durP1;ratioP1;P1;durP2;ratioP2;P2;SDS_P1;SDS_P2;PMS_P1;PMS_P2;Temp;Humidity;BMP_temperature;BMP_pressure;BME280_temperature;BME280_humidity;BME280_pressure;Samples;Min_cycle;Max_cycle;Signal;HPM_P1;HPM_P2
2023/03/03 00:00:01;;;;;;;;;;;2.20;99.90;;;;;;5090779;28;19924;-54
2023/03/03 00:02:37;;;;;;;;;;;2.20;99.90;;;;;;5087003;28;19935;-51
2023/03/03 00:05:04;;;;;;;;;;;2.20;99.90;;;;;;5089838;28;19942;-51
2023/03/03 00:07:31;;;;;;;;;;;2.20;99.90;;;;;;5082680;28;20328;-52
2023/03/03 00:09:58;;;;;;;;;;;2.20;99.90;;;;;;5080897;28;20409;-51
2023/03/03 00:12:27;;;;;;;;;;;2.20;99.90;;;;;;5083954;28;19928;-52
2023/03/03 00:14:53;;;;;;;;;;;2.20;99.90;;;;;;5083428;28;19927;-51
2023/03/03 00:17:24;;;;;;;;;;;2.20;99.90;;;;;;5084080;28;19974;-54
2023/03/03 00:19:51;;;;;;;;;;;2.20;99.90;;;;;;5086087;28;19969;-54
2023/03/03 00:22:29;;;;;;;;;;;2.20;99.90;;;;;;5082779;28;19973;-51
2023/03/03 00:25:06;;;;;;;;;;;2.20;99.90;;;;;;5073600;28;19928;-51
2023/03/03 00:27:37;;;;;;;;;;;2.20;99.90;;;;;;5073843;28;19959;-51
2023/03/03 00:30:15;;;;;;;;;;;2.20;99.90;;;;;;5080529;28;19955;-52
2023/03/03 00:32:45;;;;;;;;;;;2.30;99.90;;;;;;5073900;28;19924;-54
2023/03/03 00:35:21;;;;;;;;;;;2.30;99.90;;;;;;5085409;28;20583;-51
2023/03/03 00:37:52;;;;;;;;;;;2.30;99.90;;;;;;5094584;28;20413;-52
2023/03/03 00:40:20;;;;;;;;;;;2.30;99.90;;;;;;5092781;28;19965;-54
2023/03/03 00:42:52;;;;;;;;;;;2.30;99.90;;;;;;5072834;28;20348;-51
2023/03/03 00:45:27;;;;;;;;;;;2.30;99.90;;;;;;5073128;28;19950;-54
2023/03/03 00:47:54;;;;;;;;;;;2.30;99.90;;;;;;5073767;28;19938;-52
2023/03/03 00:50:33;;;;;;;;;;;2.30;99.90;;;;;;5111848;28;19920;-51
2023/03/03 00:53:00;;;;;;;;;;;2.30;99.90;;;;;;5112517;28;19923;-52
2023/03/03 00:55:27;;;;;;;;;;;2.20;99.90;;;;;;5112263;28;19965;-50
2023/03/03 00:57:54;;;;;;;;;;;2.20;99.90;;;;;;5110097;28;19923;-53
2023/03/03 01:00:26;;;;;;;;;;;2.20;99.90;;;;;;5082871;28;20022;-56
2023/03/03 01:02:53;;;;;;;;;;;2.20;99.90;;;;;;5077134;28;20344;-51
2023/03/03 01:05:20;;;;;;;;;;;2.20;99.90;;;;;;5093592;28;19919;-52
2023/03/03 01:07:47;;;;;;;;;;;2.30;99.90;;;;;;5093779;28;19920;-54
2023/03/03 01:10:14;;;;;;;;;;;2.30;99.90;;;;;;5109211;28;19980;-51
2023/03/03 01:12:41;;;;;;;;;;;2.30;99.90;;;;;;5084754;28;20450;-52
2023/03/03 01:15:09;;;;;;;;;;;2.30;99.90;;;;;;5112068;28;19919;-51
2023/03/03 01:17:36;;;;;;;;;;;2.30;99.90;;;;;;5113688;22;20401;-54
2023/03/03 01:20:03;;;;;;;;;;;2.30;99.90;;;;;;5090188;28;20385;-52
2023/03/03 01:22:29;;;;;;;;;;;2.30;99.90;;;;;;5091185;28;19924;-53
2023/03/03 01:24:56;;;;;;;;;;;2.30;99.90;;;;;;5087695;28;19932;-55
2023/03/03 01:27:27;;;;;;;;;;;2.40;99.90;;;;;;5056899;28;20013;-53
2023/03/03 01:29:55;;;;;;;;;;;2.40;99.90;;;;;;5070420;28;20336;-51
2023/03/03 01:32:23;;;;;;;;;;;2.40;99.90;;;;;;5071059;28;19920;-52
2023/03/03 01:34:50;;;;;;;;;;;2.30;99.90;;;;;;5052393;28;19927;-53
2023/03/03 01:37:16;;;;;;;;;;;2.30;99.90;;;;;;5053153;28;20440;-53
2023/03/03 01:39:46;;;;;;;;;;;2.30;99.90;;;;;;5047463;28;20527;-53
2023/03/03 01:42:14;;;;;;;;;;;2.30;99.90;;;;;;5051149;28;19920;-53
2023/03/03 01:44:42;;;;;;;;;;;2.40;99.90;;;;;;5065542;28;19959;-52
2023/03/03 01:47:18;;;;;;;;;;;2.40;99.90;;;;;;5070712;28;19921;-53
2023/03/03 01:49:48;;;;;;;;;;;2.40;99.90;;;;;;5061593;28;20243;-52
2023/03/03 01:52:22;;;;;;;;;;;2.40;99.90;;;;;;5071009;28;19920;-52
2023/03/03 01:54:51;;;;;;;;;;;2.40;99.90;;;;;;5070216;28;19924;-51
2023/03/03 01:57:22;;;;;;;;;;;2.40;99.90;;;;;;5065200;28;19966;-51
2023/03/03 01:59:49;;;;;;;;;;;2.40;99.90;;;;;;5056283;28;19920;-52
2023/03/03 02:02:17;;;;;;;;;;;2.40;99.90;;;;;;5056225;28;19928;-52
2023/03/03 02:04:43;;;;;;;;;;;2.40;99.90;;;;;;5073694;28;19925;-51
2023/03/03 02:07:10;;;;;;;;;;;2.50;99.90;;;;;;5073370;28;19974;-51
2023/03/03 02:10:00;;;;;;;;;;;2.50;99.90;;;;;;5056153;28;20428;-55
2023/03/03 02:12:31;;;;;;;;;;;2.50;99.90;;;;;;5037621;28;19935;-52
2023/03/03 02:14:58;;;;;;;;;;;2.50;99.90;;;;;;5056619;28;19924;-55
2023/03/03 02:17:24;;;;;;;;;;;2.50;99.90;;;;;;5074837;28;20274;-51
2023/03/03 02:20:27;;;;;;;;;;;2.40;99.90;;;;;;5068708;28;19920;-53
2023/03/03 02:23:06;;;;;;;;;;;2.40;99.90;;;;;;5012014;28;19980;-51
2023/03/03 02:25:39;;;;;;;;;;;2.40;99.90;;;;;;5049688;28;19929;-52
2023/03/03 02:28:06;;;;;;;;;;;2.40;99.90;;;;;;5073310;28;19920;-54
2023/03/03 02:30:35;;;;;;;;;;;2.40;99.90;;;;;;5067200;28;19973;-53
2023/03/03 02:33:02;;;;;;;;;;;2.40;99.90;;;;;;5073075;28;19926;-51
2023/03/03 02:35:36;;;;;;;;;;;2.40;99.90;;;;;;5072909;28;19934;-53
2023/03/03 02:38:10;;;;;;;;;;;2.40;99.90;;;;;;5056631;28;20324;-53
2023/03/03 02:40:41;;;;;;;;;;;2.50;99.90;;;;;;5054230;28;19974;-51
2023/03/03 02:43:09;;;;;;;;;;;2.50;99.90;;;;;;5052004;28;19920;-51
2023/03/03 02:45:43;;;;;;;;;;;2.50;99.90;;;;;;5073810;28;19989;-54
2023/03/03 02:48:10;;;;;;;;;;;2.50;99.90;;;;;;5055885;28;19986;-53
2023/03/03 02:50:37;;;;;;;;;;;2.40;99.90;;;;;;5055611;28;19920;-53
2023/03/03 02:53:03;;;;;;;;;;;2.50;99.90;;;;;;5055902;28;20365;-51
2023/03/03 02:55:30;;;;;;;;;;;2.50;99.90;;;;;;5071288;28;20285;-53
2023/03/03 02:57:57;;;;;;;;;;;2.40;99.90;;;;;;5073640;28;19920;-54
2023/03/03 03:00:24;;;;;;;;;;;2.40;99.90;;;;;;5055401;28;19920;-53
2023/03/03 03:02:51;;;;;;;;;;;2.50;99.90;;;;;;5055445;28;19961;-53
2023/03/03 03:05:18;;;;;;;;;;;2.50;99.90;;;;;;5047493;28;19924;-54
2023/03/03 03:07:45;;;;;;;;;;;2.60;99.90;;;;;;5055785;28;20010;-52
2023/03/03 03:10:12;;;;;;;;;;;2.60;99.90;;;;;;5073247;28;19925;-52
2023/03/03 03:12:40;;;;;;;;;;;2.60;99.90;;;;;;5054355;28;19921;-51
2023/03/03 03:15:08;;;;;;;;;;;2.60;99.90;;;;;;5055529;28;19928;-54
2023/03/03 03:17:36;;;;;;;;;;;2.70;99.90;;;;;;5054263;28;19924;-51
2023/03/03 03:20:04;;;;;;;;;;;2.70;99.90;;;;;;5072648;28;19920;-54
2023/03/03 03:22:31;;;;;;;;;;;2.60;99.90;;;;;;5072807;28;19924;-54
2023/03/03 03:24:58;;;;;;;;;;;2.60;99.90;;;;;;5072198;28;19964;-52
2023/03/03 03:27:25;;;;;;;;;;;2.60;99.90;;;;;;5055031;28;19966;-54
2023/03/03 03:29:53;;;;;;;;;;;2.60;99.90;;;;;;5054690;28;19920;-52
2023/03/03 03:32:20;;;;;;;;;;;2.50;99.90;;;;;;5071331;28;20427;-53
2023/03/03 03:34:47;;;;;;;;;;;2.50;99.90;;;;;;5073240;28;19939;-54
2023/03/03 03:37:14;;;;;;;;;;;2.50;99.90;;;;;;5054780;28;19920;-51
2023/03/03 03:39:43;;;;;;;;;;;2.50;99.90;;;;;;5052976;28;20397;-50
2023/03/03 03:42:10;;;;;;;;;;;2.50;99.90;;;;;;5070117;28;20398;-51
2023/03/03 03:44:37;;;;;;;;;;;2.50;99.90;;;;;;5055001;28;19947;-53
2023/03/03 03:47:04;;;;;;;;;;;2.50;99.90;;;;;;5051071;28;19927;-54
2023/03/03 03:49:32;;;;;;;;;;;2.50;99.90;;;;;;5054747;28;19943;-52
2023/03/03 03:51:59;;;;;;;;;;;2.50;99.90;;;;;;5053971;28;19924;-50
2023/03/03 03:54:29;;;;;;;;;;;2.50;99.90;;;;;;5069419;28;19930;-52
2023/03/03 03:56:56;;;;;;;;;;;2.50;99.90;;;;;;5050809;28;20491;-52
2023/03/03 03:59:23;;;;;;;;;;;2.50;99.90;;;;;;5071129;28;20302;-52
2023/03/03 04:01:50;;;;;;;;;;;2.50;99.90;;;;;;5054526;28;20010;-50
2023/03/03 04:04:19;;;;;;;;;;;2.50;99.90;;;;;;5050863;28;20432;-52
2023/03/03 04:06:46;;;;;;;;;;;2.50;99.90;;;;;;5063667;28;19924;-54
2023/03/03 04:09:13;;;;;;;;;;;2.50;99.90;;;;;;5053384;28;19924;-52
2023/03/03 04:11:40;;;;;;;;;;;2.40;99.90;;;;;;5054455;28;19932;-52
2023/03/03 04:14:09;;;;;;;;;;;2.40;99.90;;;;;;5058896;28;20011;-51
2023/03/03 04:16:36;;;;;;;;;;;2.50;99.90;;;;;;5053306;28;19966;-54
2023/03/03 04:19:03;;;;;;;;;;;2.50;99.90;;;;;;5050636;28;19924;-53
2023/03/03 04:21:31;;;;;;;;;;;2.50;99.90;;;;;;5052926;28;19995;-51
2023/03/03 04:23:59;;;;;;;;;;;2.60;99.90;;;;;;5052640;28;19924;-53
2023/03/03 04:26:27;;;;;;;;;;;2.60;99.90;;;;;;5053846;28;19921;-51
2023/03/03 04:28:54;;;;;;;;;;;2.60;99.90;;;;;;5050749;28;19964;-51
2023/03/03 04:31:22;;;;;;;;;;;2.70;99.90;;;;;;5048100;28;20303;-52
2023/03/03 04:33:49;;;;;;;;;;;2.70;99.90;;;;;;5049491;28;19950;-52
2023/03/03 04:36:16;;;;;;;;;;;2.80;99.90;;;;;;5052797;28;19928;-53
2023/03/03 04:38:42;;;;;;;;;;;2.70;99.90;;;;;;5070587;28;19928;-52
2023/03/03 04:41:09;;;;;;;;;;;2.70;99.90;;;;;;5071596;28;19974;-52
2023/03/03 04:43:37;;;;;;;;;;;2.80;99.90;;;;;;5049635;28;19935;-51
2023/03/03 04:46:04;;;;;;;;;;;2.80;99.90;;;;;;5061045;28;19920;-53
2023/03/03 04:48:31;;;;;;;;;;;2.80;99.90;;;;;;5049326;28;19925;-54
2023/03/03 04:50:58;;;;;;;;;;;2.80;99.90;;;;;;5065489;28;19928;-53
2023/03/03 04:53:25;;;;;;;;;;;2.80;99.90;;;;;;5052917;28;19962;-51
2023/03/03 04:55:52;;;;;;;;;;;2.80;99.90;;;;;;5071211;28;19921;-51
2023/03/03 04:58:20;;;;;;;;;;;2.70;99.90;;;;;;5049153;28;19975;-52
2023/03/03 05:00:55;;;;;;;;;;;2.80;99.90;;;;;;5044234;28;19952;-53
2023/03/03 05:03:23;;;;;;;;;;;2.70;99.90;;;;;;5052848;28;19931;-51
2023/03/03 05:05:50;;;;;;;;;;;2.70;99.90;;;;;;5053671;28;19974;-51
2023/03/03 05:08:17;;;;;;;;;;;2.70;99.90;;;;;;5062977;28;19950;-54
2023/03/03 05:10:44;;;;;;;;;;;2.70;99.90;;;;;;5069716;28;19971;-51
2023/03/03 05:13:14;;;;;;;;;;;2.60;99.90;;;;;;5070094;28;19974;-52
2023/03/03 05:15:40;;;;;;;;;;;2.60;99.90;;;;;;5066110;28;19964;-51
2023/03/03 05:18:08;;;;;;;;;;;2.60;99.90;;;;;;5070727;28;19928;-51
2023/03/03 05:20:35;;;;;;;;;;;2.60;99.90;;;;;;5058978;28;19933;-53
2023/03/03 05:23:02;;;;;;;;;;;2.60;99.90;;;;;;5068609;28;20455;-53
2023/03/03 05:25:28;;;;;;;;;;;2.70;99.90;;;;;;5061577;28;20046;-51
2023/03/03 05:27:55;;;;;;;;;;;2.70;99.90;;;;;;5066393;28;20386;-54
2023/03/03 05:30:22;;;;;;;;;;;2.70;99.90;;;;;;5069888;28;19924;-53
2023/03/03 05:32:48;;;;;;;;;;;2.70;99.90;;;;;;5071930;28;19920;-51
2023/03/03 05:35:15;;;;;;;;;;;2.70;99.90;;;;;;5070998;28;19956;-53
2023/03/03 05:37:46;;;;;;;;;;;2.70;99.90;;;;;;5074901;28;19963;-51
2023/03/03 05:40:13;;;;;;;;;;;2.70;99.90;;;;;;5069629;28;20394;-54
2023/03/03 05:42:40;;;;;;;;;;;2.70;99.90;;;;;;5068689;28;19949;-54
2023/03/03 05:45:07;;;;;;;;;;;2.70;99.90;;;;;;5067328;28;19921;-52
2023/03/03 05:47:34;;;;;;;;;;;2.70;99.90;;;;;;5067941;28;20386;-51
2023/03/03 05:50:00;;;;;;;;;;;2.70;99.90;;;;;;5071735;28;19986;-50
2023/03/03 05:52:27;;;;;;;;;;;2.70;99.90;;;;;;5074591;28;20340;-51
2023/03/03 05:54:54;;;;;;;;;;;2.80;99.90;;;;;;5070969;28;19921;-51
2023/03/03 05:57:20;;;;;;;;;;;2.70;99.90;;;;;;5068801;28;19920;-51
2023/03/03 05:59:47;;;;;;;;;;;2.80;99.90;;;;;;5063571;28;20263;-50
2023/03/03 06:02:14;;;;;;;;;;;2.80;99.90;;;;;;5068050;28;19950;-53
2023/03/03 06:04:41;;;;;;;;;;;2.90;99.90;;;;;;5073563;28;20557;-51
2023/03/03 06:07:08;;;;;;;;;;;2.90;99.90;;;;;;5073402;28;20401;-52
2023/03/03 06:09:35;;;;;;;;;;;2.90;99.90;;;;;;5064788;28;19925;-54
2023/03/03 06:12:02;;;;;;;;;;;2.80;99.90;;;;;;5056984;28;20345;-52
2023/03/03 06:14:29;;;;;;;;;;;2.90;99.90;;;;;;5074287;28;19924;-52
2023/03/03 06:16:56;;;;;;;;;;;2.90;99.90;;;;;;5074493;28;19982;-53
2023/03/03 06:19:23;;;;;;;;;;;2.90;99.90;;;;;;5070514;28;19967;-53
2023/03/03 06:21:54;;;;;;;;;;;2.90;99.90;;;;;;5072489;28;19920;-54
2023/03/03 06:24:24;;;;;;;;;;;2.90;99.90;;;;;;5064145;28;20294;-49
2023/03/03 06:26:50;;;;;;;;;;;2.90;99.90;;;;;;5072278;28;19928;-52
2023/03/03 06:29:17;;;;;;;;;;;3.00;99.90;;;;;;5073550;28;19970;-52
2023/03/03 06:31:44;;;;;;;;;;;3.00;99.90;;;;;;5068030;28;19948;-50
2023/03/03 06:34:10;;;;;;;;;;;3.00;99.90;;;;;;5067179;28;19927;-54
2023/03/03 06:36:37;;;;;;;;;;;3.10;99.90;;;;;;5074416;28;19967;-55
2023/03/03 06:39:04;;;;;;;;;;;3.00;99.90;;;;;;5072975;28;20378;-53
2023/03/03 06:41:30;;;;;;;;;;;3.00;99.90;;;;;;5066454;28;19967;-53
2023/03/03 06:43:59;;;;;;;;;;;3.00;99.90;;;;;;5064656;28;19928;-52
2023/03/03 06:46:26;;;;;;;;;;;3.10;99.90;;;;;;5064136;28;20015;-52
2023/03/03 06:48:52;;;;;;;;;;;3.10;99.90;;;;;;5062127;28;19928;-52
2023/03/03 06:51:23;;;;;;;;;;;3.10;99.90;;;;;;5063939;28;20551;-55
2023/03/03 06:53:51;;;;;;;;;;;3.10;99.90;;;;;;5064527;28;19939;-53
2023/03/03 06:56:18;;;;;;;;;;;3.10;99.90;;;;;;5063698;28;19924;-54
2023/03/03 06:58:45;;;;;;;;;;;3.10;99.90;;;;;;5063845;28;19974;-52
2023/03/03 07:01:15;;;;;;;;;;;3.10;99.90;;;;;;5064407;28;20302;-53
2023/03/03 07:03:42;;;;;;;;;;;3.20;99.90;;;;;;5063791;28;20289;-55
2023/03/03 07:06:20;;;;;;;;;;;3.20;99.90;;;;;;5061942;28;19967;-53
2023/03/03 07:08:47;;;;;;;;;;;3.20;99.90;;;;;;5063990;28;20394;-54
2023/03/03 07:11:16;;;;;;;;;;;3.30;99.90;;;;;;5064114;28;19974;-53
2023/03/03 07:13:45;;;;;;;;;;;3.20;99.90;;;;;;5078019;28;20386;-52
2023/03/03 07:16:13;;;;;;;;;;;3.20;99.90;;;;;;5064212;28;19936;-54
2023/03/03 07:19:06;;;;;;;;;;;3.20;99.90;;;;;;5086659;22;20309;-54
2023/03/03 07:21:33;;;;;;;;;;;3.20;99.90;;;;;;5071447;28;19936;-52
2023/03/03 07:24:09;;;;;;;;;;;3.20;99.90;;;;;;5078356;28;20336;-50
2023/03/03 07:26:36;;;;;;;;;;;3.20;99.90;;;;;;5093106;28;19966;-51
2023/03/03 07:29:23;;;;;;;;;;;3.20;99.90;;;;;;5092391;28;20356;-50
2023/03/03 07:31:50;;;;;;;;;;;3.20;99.90;;;;;;5081568;28;19971;-50
2023/03/03 07:34:16;;;;;;;;;;;3.20;99.90;;;;;;5093569;28;19920;-49
2023/03/03 07:36:43;;;;;;;;;;;3.30;99.90;;;;;;5090890;28;19942;-52
2023/03/03 07:39:28;;;;;;;;;;;3.30;99.90;;;;;;5075977;28;19921;-51
2023/03/03 07:42:00;;;;;;;;;;;3.30;99.90;;;;;;5092499;28;20340;-50
2023/03/03 07:44:34;;;;;;;;;;;4.40;99.90;;;;;;5092818;28;19920;-51
2023/03/03 07:47:13;;;;;;;;;;;3.30;99.90;;;;;;5084936;28;19974;-50
2023/03/03 07:49:39;;;;;;;;;;;3.30;99.90;;;;;;5092796;28;19920;-52
2023/03/03 07:52:18;;;;;;;;;;;3.40;99.90;;;;;;5093277;28;19920;-51
2023/03/03 07:54:46;;;;;;;;;;;3.40;99.90;;;;;;5092734;28;19957;-51
2023/03/03 07:57:26;;;;;;;;;;;3.50;99.90;;;;;;5084485;28;19925;-50
2023/03/03 07:59:57;;;;;;;;;;;3.50;99.90;;;;;;5091080;28;19977;-51
2023/03/03 08:02:35;;;;;;;;;;;3.50;99.90;;;;;;5092765;28;19924;-53
2023/03/03 08:05:19;;;;;;;;;;;3.50;99.90;;;;;;5092728;28;19969;-50
2023/03/03 08:07:48;;;;;;;;;;;3.50;99.90;;;;;;5087835;28;19934;-50
2023/03/03 08:10:35;;;;;;;;;;;3.50;99.90;;;;;;5054268;28;19920;-52
2023/03/03 08:13:08;;;;;;;;;;;3.50;99.90;;;;;;5072343;28;19920;-52
2023/03/03 08:15:35;;;;;;;;;;;3.60;99.90;;;;;;5073503;28;20011;-51
2023/03/03 08:18:15;;;;;;;;;;;3.50;99.90;;;;;;5081185;28;19924;-52
2023/03/03 08:21:05;;;;;;;;;;;3.60;99.90;;;;;;5081695;28;19974;-50
2023/03/03 08:23:32;;;;;;;;;;;3.60;99.90;;;;;;5063465;28;20278;-51
2023/03/03 08:25:58;;;;;;;;;;;3.60;99.90;;;;;;5071898;28;20371;-50
2023/03/03 08:28:25;;;;;;;;;;;3.70;99.90;;;;;;5085555;28;19920;-51
2023/03/03 08:30:52;;;;;;;;;;;3.70;99.90;;;;;;5089076;28;19924;-52
2023/03/03 08:33:38;;;;;;;;;;;3.70;99.90;;;;;;5092574;28;19990;-50
2023/03/03 08:36:06;;;;;;;;;;;3.80;99.90;;;;;;5080174;28;19959;-50
2023/03/03 08:38:34;;;;;;;;;;;3.80;99.90;;;;;;5071604;28;19924;-50
2023/03/03 08:41:01;;;;;;;;;;;3.80;99.90;;;;;;5071508;28;19954;-53
2023/03/03 08:43:27;;;;;;;;;;;3.80;99.90;;;;;;5077017;28;20425;-50
2023/03/03 08:45:58;;;;;;;;;;;3.80;99.90;;;;;;5082058;28;20341;-50
2023/03/03 08:48:25;;;;;;;;;;;3.80;99.90;;;;;;5071303;28;19924;-50
2023/03/03 08:50:52;;;;;;;;;;;3.80;99.90;;;;;;5071439;28;19925;-50
2023/03/03 08:53:19;;;;;;;;;;;3.80;99.90;;;;;;5072163;28;19951;-50
2023/03/03 08:55:46;;;;;;;;;;;3.90;99.90;;;;;;5080997;28;19924;-54
2023/03/03 08:58:14;;;;;;;;;;;4.60;99.90;;;;;;5091337;28;19996;-51
2023/03/03 09:00:41;;;;;;;;;;;3.90;99.90;;;;;;5087376;28;20394;-51
2023/03/03 09:03:07;;;;;;;;;;;3.90;99.90;;;;;;5070914;28;20463;-50
2023/03/03 09:05:35;;;;;;;;;;;3.90;99.90;;;;;;5070853;28;19920;-51
2023/03/03 09:08:01;;;;;;;;;;;3.90;99.90;;;;;;5071706;28;19970;-50
2023/03/03 09:10:30;;;;;;;;;;;4.00;99.90;;;;;;5086030;28;19966;-50
2023/03/03 09:13:00;;;;;;;;;;;4.00;99.90;;;;;;5089657;28;19920;-50
2023/03/03 09:15:31;;;;;;;;;;;4.00;99.90;;;;;;5091614;28;20361;-50
2023/03/03 09:18:09;;;;;;;;;;;4.10;99.90;;;;;;5090123;28;19923;-49
2023/03/03 09:20:36;;;;;;;;;;;4.10;99.90;;;;;;5072392;28;19977;-51
2023/03/03 09:23:21;;;;;;;;;;;4.20;99.90;;;;;;5071441;28;19924;-51
2023/03/03 09:25:48;;;;;;;;;;;4.20;99.90;;;;;;5071675;28;19920;-50
2023/03/03 09:28:24;;;;;;;;;;;4.20;99.90;;;;;;5071117;28;19920;-53
2023/03/03 09:30:51;;;;;;;;;;;4.30;99.90;;;;;;5079771;28;19921;-49
2023/03/03 09:33:24;;;;;;;;;;;4.30;99.90;;;;;;5071576;28;19965;-51
2023/03/03 09:35:52;;;;;;;;;;;4.40;99.90;;;;;;5072153;28;19921;-49
2023/03/03 09:38:29;;;;;;;;;;;4.40;99.90;;;;;;5071150;28;19927;-50
2023/03/03 09:41:15;;;;;;;;;;;4.40;99.90;;;;;;5071136;28;19928;-51
2023/03/03 09:43:52;;;;;;;;;;;4.50;99.90;;;;;;5071499;28;19920;-50
2023/03/03 09:46:36;;;;;;;;;;;4.60;99.90;;;;;;5071158;28;19921;-54
2023/03/03 09:49:21;;;;;;;;;;;4.70;99.90;;;;;;5070332;28;19970;-50
2023/03/03 09:51:51;;;;;;;;;;;4.80;99.90;;;;;;5073022;28;20297;-51
2023/03/03 09:54:30;;;;;;;;;;;4.90;99.90;;;;;;5070754;28;19920;-51
2023/03/03 09:57:16;;;;;;;;;;;5.00;99.90;;;;;;5070788;28;19966;-49
2023/03/03 09:59:48;;;;;;;;;;;5.10;99.90;;;;;;5079795;28;19973;-49
2023/03/03 10:02:25;;;;;;;;;;;5.10;99.90;;;;;;5082619;28;20421;-50
2023/03/03 10:05:11;;;;;;;;;;;5.20;99.90;;;;;;5091601;28;19920;-50
2023/03/03 10:07:52;;;;;;;;;;;5.20;99.90;;;;;;5089661;28;19959;-50
2023/03/03 10:10:19;;;;;;;;;;;5.20;99.90;;;;;;5090445;28;20405;-50
2023/03/03 10:13:08;;;;;;;;;;;5.30;99.90;;;;;;5090870;28;19920;-48
2023/03/03 10:15:40;;;;;;;;;;;5.40;99.90;;;;;;5087660;28;19921;-51
2023/03/03 10:18:07;;;;;;;;;;;5.40;99.90;;;;;;5093323;28;19973;-53
2023/03/03 10:20:37;;;;;;;;;;;5.50;99.90;;;;;;5085872;28;19979;-49
2023/03/03 10:23:22;;;;;;;;;;;5.50;99.90;;;;;;5074772;28;19927;-51
2023/03/03 10:25:52;;;;;;;;;;;5.50;99.90;;;;;;5073955;28;20424;-50
2023/03/03 10:28:34;;;;;;;;;;;5.60;99.90;;;;;;5076032;28;19928;-52
2023/03/03 10:31:04;;;;;;;;;;;5.60;99.90;;;;;;5086405;28;19925;-49
2023/03/03 10:33:55;;;;;;;;;;;5.70;99.90;;;;;;5094680;28;19963;-51
2023/03/03 10:36:28;;;;;;;;;;;5.80;99.90;;;;;;5094287;28;19947;-50
2023/03/03 10:39:14;;;;;;;;;;;5.90;99.90;;;;;;5085793;28;19921;-50
2023/03/03 10:41:47;;;;;;;;;;;6.00;99.90;;;;;;5084928;28;19921;-51
2023/03/03 10:44:28;;;;;;;;;;;6.10;99.90;;;;;;5077294;28;19963;-53
2023/03/03 10:47:04;;;;;;;;;;;6.20;99.90;;;;;;5091327;28;20328;-49
2023/03/03 10:49:54;;;;;;;;;;;6.30;99.90;;;;;;5087933;28;19920;-49
2023/03/03 10:52:41;;;;;;;;;;;6.30;99.90;;;;;;5054192;28;19968;-53
2023/03/03 10:55:10;;;;;;;;;;;6.30;99.90;;;;;;5073220;28;19975;-50
2023/03/03 10:58:03;;;;;;;;;;;6.30;99.90;;;;;;5074269;28;20025;-51
2023/03/03 11:00:44;;;;;;;;;;;6.30;99.90;;;;;;5075003;28;19979;-50
2023/03/03 11:03:33;;;;;;;;;;;6.40;99.90;;;;;;5073939;28;19978;-50
2023/03/03 11:06:00;;;;;;;;;;;6.40;99.90;;;;;;5073536;28;20271;-51
2023/03/03 11:08:27;;;;;;;;;;;6.40;99.90;;;;;;5073279;28;19920;-51
2023/03/03 11:11:17;;;;;;;;;;;6.40;99.90;;;;;;5072812;28;20544;-50
2023/03/03 11:13:49;;;;;;;;;;;6.40;99.90;;;;;;5073815;28;19930;-50
2023/03/03 11:16:51;;;;;;;;;;;6.50;99.90;;;;;;5087154;28;19920;-52
2023/03/03 11:19:29;;;;;;;;;;;6.50;99.90;;;;;;4972308;28;19922;-48
2023/03/03 11:22:21;;;;;;;;;;;6.50;99.90;;;;;;5061684;28;19924;-54
2023/03/03 11:24:53;;;;;;;;;;;6.60;99.90;;;;;;5073119;28;19956;-49
2023/03/03 11:27:19;;;;;;;;;;;6.60;99.90;;;;;;5072978;28;19985;-50
2023/03/03 11:30:11;;;;;;;;;;;6.70;99.90;;;;;;5073114;28;19921;-51
2023/03/03 11:33:02;;;;;;;;;;;6.70;99.90;;;;;;5086983;28;20378;-51
2023/03/03 11:35:47;;;;;;;;;;;6.80;99.90;;;;;;5073304;28;19943;-52
2023/03/03 11:38:22;;;;;;;;;;;6.70;99.90;;;;;;5074308;28;19921;-52
2023/03/03 11:40:54;;;;;;;;;;;6.70;99.90;;;;;;5072872;28;19924;-51
2023/03/03 11:43:24;;;;;;;;;;;6.80;99.90;;;;;;5072674;28;19928;-53
2023/03/03 11:46:11;;;;;;;;;;;6.80;99.90;;;;;;5074914;28;20011;-51
2023/03/03 11:48:42;;;;;;;;;;;6.80;99.90;;;;;;5071299;28;19921;-51
2023/03/03 11:51:15;;;;;;;;;;;6.90;99.90;;;;;;5073076;28;19920;-51
2023/03/03 11:54:01;;;;;;;;;;;6.90;99.90;;;;;;5083797;28;19920;-50
2023/03/03 11:56:30;;;;;;;;;;;6.80;99.90;;;;;;5073101;28;19922;-51
2023/03/03 11:59:16;;;;;;;;;;;6.90;99.90;;;;;;5072289;28;19920;-50
2023/03/03 12:01:52;;;;;;;;;;;6.90;99.90;;;;;;5078114;28;20363;-50
2023/03/03 12:04:35;;;;;;;;;;;7.00;99.90;;;;;;5081201;28;19920;-51
2023/03/03 12:07:14;;;;;;;;;;;7.10;99.90;;;;;;5076353;28;19920;-53
2023/03/03 12:10:00;;;;;;;;;;;7.20;99.90;;;;;;5072022;28;20289;-50
2023/03/03 12:12:30;;;;;;;;;;;7.30;99.90;;;;;;5086871;28;19950;-51
2023/03/03 12:15:18;;;;;;;;;;;7.60;99.90;;;;;;5087647;28;19920;-51
2023/03/03 12:17:50;;;;;;;;;;;7.80;99.90;;;;;;5054538;28;20380;-54
2023/03/03 12:20:17;;;;;;;;;;;7.90;99.90;;;;;;5072161;28;19927;-48
2023/03/03 12:22:51;;;;;;;;;;;7.90;99.90;;;;;;5074804;28;19935;-53
2023/03/03 12:25:32;;;;;;;;;;;8.20;99.90;;;;;;5063109;28;19920;-50
2023/03/03 12:28:04;;;;;;;;;;;8.20;99.90;;;;;;5082990;28;19921;-52
2023/03/03 12:30:40;;;;;;;;;;;8.20;99.90;;;;;;5082035;28;19920;-52
2023/03/03 12:33:22;;;;;;;;;;;8.20;99.90;;;;;;5083072;28;20258;-50
2023/03/03 12:36:13;;;;;;;;;;;8.20;99.90;;;;;;5081847;28;20019;-50
2023/03/03 12:38:47;;;;;;;;;;;8.20;99.90;;;;;;5064253;28;20008;-53
2023/03/03 12:41:20;;;;;;;;;;;8.10;99.90;;;;;;5081288;28;20826;-50
2023/03/03 12:44:07;;;;;;;;;;;8.00;99.90;;;;;;5083182;28;20341;-52
2023/03/03 12:46:44;;;;;;;;;;;8.10;99.90;;;;;;5060330;28;19970;-51
2023/03/03 12:49:11;;;;;;;;;;;8.20;99.90;;;;;;5081480;28;19924;-51
2023/03/03 12:51:47;;;;;;;;;;;8.20;99.90;;;;;;5077352;28;19920;-54
2023/03/03 12:54:22;;;;;;;;;;;8.10;99.90;;;;;;5091034;28;19919;-51
2023/03/03 12:56:59;;;;;;;;;;;8.20;99.90;;;;;;5092318;28;19960;-52
2023/03/03 12:59:35;;;;;;;;;;;8.30;99.90;;;;;;5091240;28;20340;-52
2023/03/03 13:02:02;;;;;;;;;;;8.30;99.90;;;;;;5083758;28;19969;-50
2023/03/03 13:04:43;;;;;;;;;;;8.40;99.90;;;;;;5092138;28;19955;-51
2023/03/03 13:07:14;;;;;;;;;;;8.40;99.90;;;;;;5079916;28;19939;-51
2023/03/03 13:09:47;;;;;;;;;;;8.50;99.90;;;;;;5086544;28;19924;-51
2023/03/03 13:12:14;;;;;;;;;;;8.60;99.90;;;;;;5090498;28;19947;-49
2023/03/03 13:14:43;;;;;;;;;;;8.70;99.90;;;;;;5080619;28;19959;-54
2023/03/03 13:20:30;;;;;;;;;;;8.70;99.90;;;;;;5072676;28;19952;-53
2023/03/03 13:22:57;;;;;;;;;;;8.80;99.90;;;;;;5080954;28;19967;-53
2023/03/03 13:25:35;;;;;;;;;;;9.00;99.90;;;;;;5081548;28;19920;-53
2023/03/03 13:28:06;;;;;;;;;;;9.10;99.90;;;;;;5076282;28;20469;-51
2023/03/03 13:30:35;;;;;;;;;;;9.20;99.90;;;;;;5069251;28;20327;-51
2023/03/03 13:33:08;;;;;;;;;;;8.90;99.90;;;;;;5071228;28;20481;-52
2023/03/03 13:35:54;;;;;;;;;;;8.90;99.90;;;;;;5071155;28;20301;-50
2023/03/03 13:38:24;;;;;;;;;;;9.00;99.90;;;;;;5069765;28;20281;-51
2023/03/03 13:40:58;;;;;;;;;;;9.10;99.90;;;;;;5070516;28;19963;-54
2023/03/03 13:43:29;;;;;;;;;;;8.90;99.90;;;;;;5069264;28;20270;-52
2023/03/03 13:46:06;;;;;;;;;;;8.90;99.90;;;;;;5068600;28;19982;-52
2023/03/03 13:48:42;;;;;;;;;;;8.80;99.90;;;;;;5071457;28;19944;-51
2023/03/03 13:51:18;;;;;;;;;;;8.70;99.90;;;;;;5074633;28;20001;-51
2023/03/03 13:54:03;;;;;;;;;;;8.60;99.90;;;;;;5074853;28;20293;-51
2023/03/03 13:56:35;;;;;;;;;;;8.60;99.90;;;;;;5073667;28;19969;-53
2023/03/03 13:59:09;;;;;;;;;;;8.30;99.90;;;;;;5073927;28;19958;-51
2023/03/03 14:01:54;;;;;;;;;;;8.30;99.90;;;;;;5074393;28;19921;-50
2023/03/03 14:04:33;;;;;;;;;;;8.20;99.90;;;;;;5069607;28;19921;-52
2023/03/03 14:07:20;;;;;;;;;;;8.10;99.90;;;;;;5074505;28;20324;-53
2023/03/03 14:09:55;;;;;;;;;;;8.00;99.90;;;;;;5071798;28;19944;-51
2023/03/03 14:12:28;;;;;;;;;;;8.00;99.90;;;;;;5073546;28;19920;-53
2023/03/03 14:15:15;;;;;;;;;;;7.90;99.90;;;;;;5062889;28;19924;-51
2023/03/03 14:18:01;;;;;;;;;;;7.90;99.90;;;;;;5073981;28;19927;-52
2023/03/03 14:20:34;;;;;;;;;;;8.00;99.90;;;;;;5071152;28;19920;-50
2023/03/03 14:23:02;;;;;;;;;;;7.90;99.90;;;;;;5073836;28;19964;-52
2023/03/03 14:25:52;;;;;;;;;;;7.90;99.90;;;;;;5074407;28;19948;-53
2023/03/03 14:28:20;;;;;;;;;;;7.90;99.90;;;;;;5062116;28;20428;-52
2023/03/03 14:30:48;;;;;;;;;;;7.90;99.90;;;;;;5074154;28;19931;-51
2023/03/03 14:33:16;;;;;;;;;;;7.90;99.90;;;;;;5074082;28;19927;-52
2023/03/03 14:35:48;;;;;;;;;;;8.00;99.90;;;;;;5073050;28;19963;-54
2023/03/03 14:38:20;;;;;;;;;;;7.90;99.90;;;;;;5073965;28;19924;-51
2023/03/03 14:40:48;;;;;;;;;;;7.90;99.90;;;;;;5073783;28;19924;-54
2023/03/03 14:43:21;;;;;;;;;;;7.90;99.90;;;;;;5074050;28;20387;-51
2023/03/03 14:45:47;;;;;;;;;;;8.00;99.90;;;;;;5073269;28;20278;-52
2023/03/03 14:48:19;;;;;;;;;;;8.10;99.90;;;;;;5073231;28;19963;-54
2023/03/03 14:50:57;;;;;;;;;;;8.00;99.90;;;;;;5073505;28;19932;-50
2023/03/03 14:53:33;;;;;;;;;;;8.00;99.90;;;;;;5072457;28;19920;-51
2023/03/03 14:56:21;;;;;;;;;;;8.00;99.90;;;;;;5073319;28;19921;-50
2023/03/03 14:59:18;;;;;;;;;;;8.00;99.90;;;;;;5070990;28;20320;-51
2023/03/03 15:02:15;;;;;;;;;;;8.00;99.90;;;;;;5058590;28;19927;-52